Terminal Aerodrome Forecast
Issued by NWS Grand Forks, ND

Home | Current Version | Previous Version | Text Only | Print | Product List | Glossary Off
Versions: 1 2 3 4 5 6 7 8 9 10 11 12 13 14 15 16 17 18 19 20 21 22

000
FTUS43 KFGF 261156 CCA
TAFGFK
TAF COR
KGFK 261156Z 2612/2712 02017G26KT P6SM OVC015
     FM261500 01018KT P6SM OVC010
     FM261700 02018G26KT P6SM OVC010
      TEMPO 2620/2621 2SM -SN OVC003
     FM262100 02017KT 2SM -SN OVC010
     FM270200 02012KT P6SM OVC010
     FM271100 36011KT P6SM BKN030=

USA.gov is the U.S. government's official web portal to all federal, state and local government web resources and services.